Time;durP1;ratioP1;P1;durP2;ratioP2;P2;SDS_P1;SDS_P2;PMS_P1;PMS_P2;Temp;Humidity;BMP_temperature;BMP_pressure;BME280_temperature;BME280_humidity;BME280_pressure;Samples;Min_cycle;Max_cycle;Signal;HPM_P1;HPM_P2
2022/03/26 00:01:49;;;;;;;22.47;10.03;;;;;;;;;;4978709;28;20189;-73
2022/03/26 00:04:17;;;;;;;22.90;10.23;;;;;;;;;;4989009;28;20232;-73
2022/03/26 00:07:01;;;;;;;20.20;9.27;;;;;;;;;;4974170;28;20535;-73
2022/03/26 00:09:28;;;;;;;24.47;9.97;;;;;;;;;;4989416;28;20232;-72
2022/03/26 00:11:54;;;;;;;23.03;10.30;;;;;;;;;;4988868;28;20655;-74
2022/03/26 00:14:21;;;;;;;22.83;10.53;;;;;;;;;;4970462;28;20189;-73
2022/03/26 00:16:48;;;;;;;22.70;10.60;;;;;;;;;;4988921;28;20318;-73
2022/03/26 00:19:31;;;;;;;21.47;10.80;;;;;;;;;;4988886;28;20181;-72
2022/03/26 00:21:58;;;;;;;19.47;10.30;;;;;;;;;;4971229;28;20196;-73
2022/03/26 00:24:42;;;;;;;23.63;11.10;;;;;;;;;;4956735;28;20182;-73
2022/03/26 00:27:09;;;;;;;19.03;10.63;;;;;;;;;;4967638;28;20190;-72
2022/03/26 00:29:53;;;;;;;21.40;11.83;;;;;;;;;;4973585;28;20244;-73
2022/03/26 00:32:20;;;;;;;26.90;11.30;;;;;;;;;;4963870;28;20193;-73
2022/03/26 00:34:47;;;;;;;21.97;10.27;;;;;;;;;;4988878;28;20196;-73
2022/03/26 00:37:14;;;;;;;26.43;12.60;;;;;;;;;;4971188;28;20188;-73
2022/03/26 00:39:42;;;;;;;22.77;11.40;;;;;;;;;;4988602;28;20231;-73
2022/03/26 00:42:09;;;;;;;21.40;11.43;;;;;;;;;;4973367;28;20652;-74
2022/03/26 00:44:36;;;;;;;27.20;12.10;;;;;;;;;;4976773;28;20235;-73
2022/03/26 00:47:03;;;;;;;25.70;11.93;;;;;;;;;;4970243;28;20186;-73
2022/03/26 00:49:30;;;;;;;22.27;11.53;;;;;;;;;;4964103;28;20685;-73
2022/03/26 00:51:56;;;;;;;20.57;10.40;;;;;;;;;;4992055;28;20185;-74
2022/03/26 00:54:23;;;;;;;27.70;12.00;;;;;;;;;;4974660;28;20237;-74
2022/03/26 00:56:50;;;;;;;21.73;11.00;;;;;;;;;;4975236;28;20659;-74
2022/03/26 00:59:17;;;;;;;21.23;10.07;;;;;;;;;;4990634;28;20247;-72
2022/03/26 01:01:44;;;;;;;24.57;12.47;;;;;;;;;;4980880;28;20173;-73
2022/03/26 01:40:59;;;;;;;23.03;12.33;;;;;;;;;;4739139;28;20284;-73
2022/03/26 01:43:26;;;;;;;26.13;12.37;;;;;;;;;;4978647;28;20259;-73
2022/03/26 01:45:53;;;;;;;24.83;13.23;;;;;;;;;;4986829;28;20192;-73
2022/03/26 01:48:20;;;;;;;27.17;13.37;;;;;;;;;;4977732;28;20186;-73
2022/03/26 01:50:47;;;;;;;27.73;13.57;;;;;;;;;;4988565;28;20215;-73
2022/03/26 01:53:13;;;;;;;29.43;13.70;;;;;;;;;;4973225;28;20199;-74
2022/03/26 01:55:40;;;;;;;26.03;12.53;;;;;;;;;;4990789;28;20200;-73
2022/03/26 01:58:08;;;;;;;27.33;12.80;;;;;;;;;;4990608;28;20267;-73
2022/03/26 02:00:35;;;;;;;25.60;13.37;;;;;;;;;;4987070;28;20193;-74
2022/03/26 02:03:03;;;;;;;23.17;12.87;;;;;;;;;;4973399;28;20197;-73
2022/03/26 02:05:30;;;;;;;25.40;12.37;;;;;;;;;;4990645;28;20204;-73
2022/03/26 02:07:56;;;;;;;23.40;11.77;;;;;;;;;;4991029;28;20181;-73
2022/03/26 02:10:23;;;;;;;20.27;11.00;;;;;;;;;;4990019;28;20208;-74
2022/03/26 02:12:50;;;;;;;22.23;10.73;;;;;;;;;;4990517;28;20209;-73
2022/03/26 02:15:16;;;;;;;18.77;9.30;;;;;;;;;;4991082;28;20659;-74
2022/03/26 02:17:44;;;;;;;18.83;9.57;;;;;;;;;;4990238;28;20197;-74
2022/03/26 02:20:11;;;;;;;22.17;10.60;;;;;;;;;;4988132;28;20193;-73
2022/03/26 02:22:37;;;;;;;19.27;10.70;;;;;;;;;;4973259;28;20246;-73
2022/03/26 02:25:05;;;;;;;20.10;10.00;;;;;;;;;;4972816;28;20192;-73
2022/03/26 02:27:33;;;;;;;19.57;9.77;;;;;;;;;;4990903;28;20185;-73
2022/03/26 02:30:00;;;;;;;21.93;10.30;;;;;;;;;;4973020;28;20211;-73
2022/03/26 02:32:27;;;;;;;20.37;10.73;;;;;;;;;;4973483;28;20261;-73
2022/03/26 02:34:54;;;;;;;20.87;9.83;;;;;;;;;;4969130;28;20194;-73
2022/03/26 02:37:27;;;;;;;20.03;10.20;;;;;;;;;;4972407;28;20248;-74
2022/03/26 02:39:54;;;;;;;17.30;8.83;;;;;;;;;;4971388;28;20691;-73
2022/03/26 02:42:21;;;;;;;21.97;10.50;;;;;;;;;;4992273;28;20648;-74
2022/03/26 02:44:47;;;;;;;19.47;10.63;;;;;;;;;;4972723;28;20196;-73
2022/03/26 02:47:14;;;;;;;19.30;9.43;;;;;;;;;;4972849;28;20188;-73
2022/03/26 02:49:41;;;;;;;19.03;9.53;;;;;;;;;;4989045;28;20192;-73
2022/03/26 02:52:08;;;;;;;18.93;9.47;;;;;;;;;;4972713;28;20212;-74
2022/03/26 02:54:35;;;;;;;19.57;9.80;;;;;;;;;;4971993;28;20436;-74
2022/03/26 02:57:02;;;;;;;18.53;9.27;;;;;;;;;;4953790;28;20268;-74
2022/03/26 02:59:29;;;;;;;23.27;10.07;;;;;;;;;;4982523;28;20186;-73
2022/03/26 03:01:56;;;;;;;18.77;9.43;;;;;;;;;;4971697;28;20212;-74
2022/03/26 03:04:26;;;;;;;22.07;10.10;;;;;;;;;;4989586;28;20181;-74
2022/03/26 03:06:52;;;;;;;19.83;10.33;;;;;;;;;;4989060;28;20197;-74
2022/03/26 03:09:19;;;;;;;14.67;8.30;;;;;;;;;;4955919;28;20291;-75
2022/03/26 03:11:46;;;;;;;17.37;8.10;;;;;;;;;;4972686;28;20201;-75
2022/03/26 03:14:13;;;;;;;16.20;9.57;;;;;;;;;;4989440;28;20707;-73
2022/03/26 03:16:41;;;;;;;15.10;7.87;;;;;;;;;;4989646;28;20954;-75
2022/03/26 03:19:08;;;;;;;20.10;9.27;;;;;;;;;;4989177;28;20252;-74
2022/03/26 03:21:34;;;;;;;18.70;9.23;;;;;;;;;;4988945;28;20561;-74
2022/03/26 03:24:19;;;;;;;16.20;9.10;;;;;;;;;;4975186;28;20181;-74
2022/03/26 03:26:45;;;;;;;21.13;8.17;;;;;;;;;;4988377;28;20185;-75
2022/03/26 03:29:30;;;;;;;15.50;7.43;;;;;;;;;;4989408;28;20727;-73
2022/03/26 03:31:57;;;;;;;16.47;8.40;;;;;;;;;;4972089;28;20201;-73
2022/03/26 03:34:24;;;;;;;15.10;8.17;;;;;;;;;;4989015;28;20196;-73
2022/03/26 03:36:50;;;;;;;17.50;9.57;;;;;;;;;;4989550;28;20185;-74
2022/03/26 03:39:17;;;;;;;15.30;8.63;;;;;;;;;;4988811;28;20216;-73
2022/03/26 03:41:44;;;;;;;15.67;9.37;;;;;;;;;;4988545;28;20193;-74
2022/03/26 03:44:10;;;;;;;18.23;8.73;;;;;;;;;;4978872;28;20196;-74
2022/03/26 03:46:38;;;;;;;20.03;9.60;;;;;;;;;;4988886;28;20185;-73
2022/03/26 03:49:04;;;;;;;17.77;9.77;;;;;;;;;;4988661;28;20209;-74
2022/03/26 03:51:33;;;;;;;16.67;9.23;;;;;;;;;;4989115;28;20754;-73
2022/03/26 03:54:00;;;;;;;19.50;9.43;;;;;;;;;;4988626;28;20185;-73
2022/03/26 03:56:44;;;;;;;13.73;8.30;;;;;;;;;;4987678;28;20157;-75
2022/03/26 03:59:13;;;;;;;18.03;9.77;;;;;;;;;;4989002;28;20702;-73
2022/03/26 04:01:40;;;;;;;17.67;9.87;;;;;;;;;;4970098;28;20201;-74
2022/03/26 04:04:07;;;;;;;18.37;10.03;;;;;;;;;;4974057;28;20185;-73
2022/03/26 04:06:33;;;;;;;17.53;9.67;;;;;;;;;;4989094;28;20532;-73
2022/03/26 04:09:01;;;;;;;19.80;10.10;;;;;;;;;;4989061;28;20185;-74
2022/03/26 04:11:28;;;;;;;19.17;9.10;;;;;;;;;;4971509;28;20607;-74
2022/03/26 04:13:55;;;;;;;19.13;9.37;;;;;;;;;;4989016;28;20185;-74
2022/03/26 04:16:21;;;;;;;18.33;10.00;;;;;;;;;;4987855;28;20196;-73
2022/03/26 04:18:49;;;;;;;13.40;8.97;;;;;;;;;;4975277;28;20203;-72
2022/03/26 04:21:19;;;;;;;18.07;10.13;;;;;;;;;;4992878;28;20177;-73
2022/03/26 04:23:45;;;;;;;16.73;9.43;;;;;;;;;;4959690;28;20196;-73
2022/03/26 04:26:12;;;;;;;19.20;9.43;;;;;;;;;;4975205;28;20595;-73
2022/03/26 04:28:39;;;;;;;18.80;10.03;;;;;;;;;;4992753;28;20185;-73
2022/03/26 04:31:06;;;;;;;18.33;10.00;;;;;;;;;;4991647;28;20220;-73
2022/03/26 04:33:32;;;;;;;17.03;9.33;;;;;;;;;;4977958;28;20281;-73
2022/03/26 04:35:59;;;;;;;14.80;7.83;;;;;;;;;;4972714;28;20209;-73
2022/03/26 04:38:26;;;;;;;15.20;8.77;;;;;;;;;;4985259;28;20200;-73
2022/03/26 04:40:52;;;;;;;18.57;9.97;;;;;;;;;;4991868;28;20305;-73
2022/03/26 04:43:20;;;;;;;21.13;10.20;;;;;;;;;;4992166;28;20192;-74
2022/03/26 04:45:47;;;;;;;18.13;11.17;;;;;;;;;;4992274;28;20189;-73
2022/03/26 04:48:13;;;;;;;15.30;7.87;;;;;;;;;;4992476;28;20195;-73
2022/03/26 04:50:40;;;;;;;24.03;11.63;;;;;;;;;;4990742;28;20218;-74
2022/03/26 04:53:09;;;;;;;22.07;11.90;;;;;;;;;;4992278;28;20436;-73
2022/03/26 04:55:35;;;;;;;21.07;10.23;;;;;;;;;;4955881;28;20229;-73
2022/03/26 04:58:02;;;;;;;20.63;10.93;;;;;;;;;;4985026;28;20185;-73
2022/03/26 05:00:29;;;;;;;28.03;11.93;;;;;;;;;;4974954;28;20838;-73
2022/03/26 05:02:56;;;;;;;24.43;11.73;;;;;;;;;;4991478;28;20189;-73
2022/03/26 05:05:23;;;;;;;20.17;11.20;;;;;;;;;;4983374;28;20749;-73
2022/03/26 05:07:52;;;;;;;19.10;11.27;;;;;;;;;;4975328;28;20263;-73
2022/03/26 05:10:22;;;;;;;22.77;11.67;;;;;;;;;;4991426;28;20216;-73
2022/03/26 05:12:49;;;;;;;24.03;11.80;;;;;;;;;;4974990;28;20684;-74
2022/03/26 05:15:33;;;;;;;20.57;11.13;;;;;;;;;;4992173;28;20169;-73
2022/03/26 05:18:00;;;;;;;22.67;12.20;;;;;;;;;;4991988;28;20184;-74
2022/03/26 05:20:26;;;;;;;22.73;10.77;;;;;;;;;;4991897;28;20189;-73
2022/03/26 05:22:53;;;;;;;21.87;11.57;;;;;;;;;;4991253;28;20193;-73
2022/03/26 05:25:20;;;;;;;22.37;11.97;;;;;;;;;;4991727;28;20205;-73
2022/03/26 05:27:50;;;;;;;20.73;11.50;;;;;;;;;;4991122;28;20451;-73
2022/03/26 05:30:17;;;;;;;20.90;11.43;;;;;;;;;;4991230;28;20593;-73
2022/03/26 05:32:44;;;;;;;21.33;10.80;;;;;;;;;;4971074;28;20189;-72
2022/03/26 05:35:13;;;;;;;20.97;10.93;;;;;;;;;;4941026;28;20208;-71
2022/03/26 05:37:41;;;;;;;21.43;11.50;;;;;;;;;;4967394;28;20279;-71
2022/03/26 05:40:08;;;;;;;24.43;11.53;;;;;;;;;;4967761;28;20564;-73
2022/03/26 05:42:36;;;;;;;20.37;11.87;;;;;;;;;;4961835;28;20214;-73
2022/03/26 05:45:04;;;;;;;20.90;12.00;;;;;;;;;;4948746;28;20202;-74
2022/03/26 05:47:31;;;;;;;19.77;10.50;;;;;;;;;;4942858;28;20530;-72
2022/03/26 05:49:58;;;;;;;19.20;10.47;;;;;;;;;;4970072;28;20190;-75
2022/03/26 05:52:26;;;;;;;16.97;10.13;;;;;;;;;;4946539;28;20265;-80
2022/03/26 05:54:54;;;;;;;23.00;11.03;;;;;;;;;;4930186;29;20262;-74
2022/03/26 05:57:21;;;;;;;19.90;10.77;;;;;;;;;;4966946;28;20641;-75
2022/03/26 05:59:48;;;;;;;19.30;10.27;;;;;;;;;;4944361;28;20198;-74
2022/03/26 06:02:15;;;;;;;20.80;11.27;;;;;;;;;;4943432;28;20776;-74
2022/03/26 06:04:59;;;;;;;22.70;11.83;;;;;;;;;;4964322;28;20182;-78
2022/03/26 06:07:26;;;;;;;17.03;10.10;;;;;;;;;;4943669;28;20198;-74
2022/03/26 06:10:11;;;;;;;19.07;10.27;;;;;;;;;;4941646;29;20223;-76
2022/03/26 06:12:42;;;;;;;19.43;10.50;;;;;;;;;;4943850;28;20198;-79
2022/03/26 06:15:27;;;;;;;19.63;10.87;;;;;;;;;;4942965;28;20197;-76
2022/03/26 06:18:12;;;;;;;19.63;9.80;;;;;;;;;;4944921;28;20197;-79
2022/03/26 06:20:40;;;;;;;20.17;10.00;;;;;;;;;;4943862;29;20201;-71
2022/03/26 06:23:07;;;;;;;22.10;12.13;;;;;;;;;;4952622;28;20277;-74
2022/03/26 06:25:34;;;;;;;34.97;20.13;;;;;;;;;;4946290;28;20194;-72
2022/03/26 06:28:01;;;;;;;25.23;14.67;;;;;;;;;;4963022;28;20186;-76
2022/03/26 06:30:27;;;;;;;25.80;15.57;;;;;;;;;;4943434;29;20206;-75
2022/03/26 06:32:55;;;;;;;23.63;12.93;;;;;;;;;;4961754;28;20194;-75
2022/03/26 06:35:22;;;;;;;23.73;11.20;;;;;;;;;;4944237;28;20226;-75
2022/03/26 06:37:49;;;;;;;19.07;10.40;;;;;;;;;;4963229;28;20740;-72
2022/03/26 06:40:15;;;;;;;23.50;11.90;;;;;;;;;;4968678;28;20231;-73
2022/03/26 06:42:43;;;;;;;15.57;9.30;;;;;;;;;;4976228;28;20196;-73
2022/03/26 06:45:15;;;;;;;14.87;9.07;;;;;;;;;;4963263;28;20276;-71
2022/03/26 06:47:43;;;;;;;21.27;9.93;;;;;;;;;;4969732;28;20204;-79
2022/03/26 06:50:10;;;;;;;18.97;9.67;;;;;;;;;;4982754;28;20201;-73
2022/03/26 06:52:37;;;;;;;17.83;9.10;;;;;;;;;;4964372;28;20313;-70
2022/03/26 06:55:06;;;;;;;18.90;9.53;;;;;;;;;;4982376;28;20953;-80
2022/03/26 06:57:33;;;;;;;18.17;9.53;;;;;;;;;;4966618;28;20276;-75
2022/03/26 07:00:00;;;;;;;16.57;9.40;;;;;;;;;;4981959;28;20169;-71
2022/03/26 07:02:27;;;;;;;22.00;9.93;;;;;;;;;;4980226;28;20201;-72
2022/03/26 07:04:54;;;;;;;18.77;9.57;;;;;;;;;;4964611;28;20259;-77
2022/03/26 07:07:21;;;;;;;17.47;8.93;;;;;;;;;;4982650;28;20188;-72
2022/03/26 07:09:49;;;;;;;16.37;8.67;;;;;;;;;;4981633;28;20244;-72
2022/03/26 07:12:16;;;;;;;16.83;8.80;;;;;;;;;;4963363;28;20209;-72
2022/03/26 07:14:49;;;;;;;22.03;9.07;;;;;;;;;;4971385;28;20212;-82
2022/03/26 07:17:17;;;;;;;17.83;9.07;;;;;;;;;;4983446;28;20227;-70
2022/03/26 07:19:44;;;;;;;15.63;8.53;;;;;;;;;;4988469;28;20644;-69
2022/03/26 07:22:11;;;;;;;18.00;8.90;;;;;;;;;;4979448;28;20196;-69
2022/03/26 07:24:38;;;;;;;16.47;8.77;;;;;;;;;;4970554;28;20182;-69
2022/03/26 07:27:05;;;;;;;15.10;8.00;;;;;;;;;;4988861;28;20232;-69
2022/03/26 07:29:33;;;;;;;16.63;8.10;;;;;;;;;;4989113;28;20268;-72
2022/03/26 07:32:00;;;;;;;17.07;8.07;;;;;;;;;;4961673;28;20300;-72
2022/03/26 07:34:27;;;;;;;17.20;8.63;;;;;;;;;;4986288;28;20276;-73
2022/03/26 07:36:55;;;;;;;17.00;7.70;;;;;;;;;;4956848;28;20207;-72
2022/03/26 07:39:21;;;;;;;15.50;7.20;;;;;;;;;;4989630;28;20579;-72
2022/03/26 07:41:49;;;;;;;13.70;7.07;;;;;;;;;;4989677;28;20181;-72
2022/03/26 07:44:18;;;;;;;15.60;7.10;;;;;;;;;;4956649;28;20200;-72
2022/03/26 07:46:45;;;;;;;13.47;6.53;;;;;;;;;;4989121;28;20283;-74
2022/03/26 07:49:11;;;;;;;11.30;6.13;;;;;;;;;;4973497;28;20196;-73
2022/03/26 07:51:38;;;;;;;15.03;7.47;;;;;;;;;;4954404;28;20286;-72
2022/03/26 07:54:05;;;;;;;14.03;7.13;;;;;;;;;;4975269;28;20263;-73
2022/03/26 07:56:32;;;;;;;16.57;6.50;;;;;;;;;;4964776;28;20193;-74
2022/03/26 07:58:59;;;;;;;10.57;6.30;;;;;;;;;;4985795;28;20989;-73
2022/03/26 08:01:27;;;;;;;12.87;5.87;;;;;;;;;;4987732;28;20259;-73
2022/03/26 08:03:55;;;;;;;10.37;6.30;;;;;;;;;;4993386;28;20181;-73
2022/03/26 08:06:23;;;;;;;11.20;5.53;;;;;;;;;;4975660;28;20227;-73
2022/03/26 08:09:08;;;;;;;9.03;5.70;;;;;;;;;;4959403;28;20193;-75
2022/03/26 08:11:35;;;;;;;9.57;5.53;;;;;;;;;;4980321;28;20639;-74
2022/03/26 08:14:18;;;;;;;11.40;4.97;;;;;;;;;;4993042;28;20572;-76
2022/03/26 08:16:45;;;;;;;12.03;5.90;;;;;;;;;;4992122;28;20805;-74
2022/03/26 08:19:12;;;;;;;10.13;4.90;;;;;;;;;;4993817;28;20187;-75
2022/03/26 08:21:39;;;;;;;10.40;4.90;;;;;;;;;;4991692;28;20189;-75
2022/03/26 08:24:06;;;;;;;12.47;5.70;;;;;;;;;;4984185;28;20842;-75
2022/03/26 08:26:36;;;;;;;11.47;4.80;;;;;;;;;;4991854;28;20276;-77
2022/03/26 08:29:03;;;;;;;8.90;4.70;;;;;;;;;;4987360;28;20268;-74
2022/03/26 08:31:30;;;;;;;10.20;4.80;;;;;;;;;;4990242;28;20302;-75
2022/03/26 08:33:57;;;;;;;10.93;4.83;;;;;;;;;;4983246;28;20190;-76
2022/03/26 08:36:24;;;;;;;9.50;5.00;;;;;;;;;;4968147;28;20734;-79
2022/03/26 08:38:51;;;;;;;12.13;4.70;;;;;;;;;;4991525;28;20623;-76
2022/03/26 08:41:20;;;;;;;8.63;3.60;;;;;;;;;;4973616;28;20332;-77
2022/03/26 08:43:47;;;;;;;8.07;4.00;;;;;;;;;;4988051;28;20635;-74
2022/03/26 08:46:15;;;;;;;10.27;4.07;;;;;;;;;;4981770;28;20268;-74
2022/03/26 08:48:43;;;;;;;8.23;3.97;;;;;;;;;;4972158;28;20550;-74
2022/03/26 08:51:09;;;;;;;6.23;3.73;;;;;;;;;;4974045;28;20201;-72
2022/03/26 08:53:36;;;;;;;8.93;4.60;;;;;;;;;;4991012;28;20295;-68
2022/03/26 08:56:06;;;;;;;8.30;3.47;;;;;;;;;;4991376;28;20193;-71
2022/03/26 08:58:33;;;;;;;14.20;3.70;;;;;;;;;;4978033;28;20186;-71
2022/03/26 09:01:00;;;;;;;9.07;3.80;;;;;;;;;;4968884;28;20203;-71
2022/03/26 09:03:27;;;;;;;6.17;2.90;;;;;;;;;;4973797;28;20675;-70
2022/03/26 09:05:55;;;;;;;17.80;5.23;;;;;;;;;;4973736;28;20223;-68
2022/03/26 09:08:22;;;;;;;8.63;4.33;;;;;;;;;;4973480;28;20236;-70
2022/03/26 09:10:49;;;;;;;8.93;4.00;;;;;;;;;;4972380;28;20220;-69
2022/03/26 09:13:16;;;;;;;9.37;3.70;;;;;;;;;;4990513;28;20224;-68
2022/03/26 09:15:42;;;;;;;7.47;3.67;;;;;;;;;;4984562;28;20728;-69
2022/03/26 09:18:10;;;;;;;11.33;3.70;;;;;;;;;;4971627;28;20233;-68
2022/03/26 09:20:38;;;;;;;8.07;2.83;;;;;;;;;;4971246;28;20300;-68
2022/03/26 09:23:05;;;;;;;5.20;2.70;;;;;;;;;;4954243;28;20260;-69
2022/03/26 09:25:34;;;;;;;6.67;2.40;;;;;;;;;;4983194;28;20192;-69
2022/03/26 09:28:01;;;;;;;7.30;3.37;;;;;;;;;;4990565;28;20999;-68
2022/03/26 09:30:28;;;;;;;9.43;3.03;;;;;;;;;;4990759;28;20213;-71
2022/03/26 09:32:55;;;;;;;22.50;3.03;;;;;;;;;;4969132;28;20961;-70
2022/03/26 09:35:21;;;;;;;10.23;2.20;;;;;;;;;;4987229;28;20251;-71
2022/03/26 09:37:48;;;;;;;6.63;3.10;;;;;;;;;;4975383;28;20197;-70
2022/03/26 09:40:15;;;;;;;6.13;2.27;;;;;;;;;;4973321;28;20233;-73
2022/03/26 09:42:43;;;;;;;4.30;1.63;;;;;;;;;;4975189;28;20853;-72
2022/03/26 09:45:10;;;;;;;4.67;1.80;;;;;;;;;;4971223;28;20207;-73
2022/03/26 09:47:37;;;;;;;5.73;2.00;;;;;;;;;;4970340;28;20592;-73
2022/03/26 09:50:05;;;;;;;7.13;2.10;;;;;;;;;;4985931;28;20844;-71
2022/03/26 09:52:32;;;;;;;7.43;2.07;;;;;;;;;;4956914;28;20216;-72
2022/03/26 09:55:04;;;;;;;12.20;2.80;;;;;;;;;;4960014;28;20667;-74
2022/03/26 09:57:31;;;;;;;11.90;2.23;;;;;;;;;;4970879;28;20235;-70
2022/03/26 09:59:58;;;;;;;3.63;1.37;;;;;;;;;;4970925;28;20184;-70
2022/03/26 10:02:25;;;;;;;9.77;1.80;;;;;;;;;;4970605;28;20196;-70
2022/03/26 10:04:52;;;;;;;7.20;1.50;;;;;;;;;;4977142;28;20791;-69
2022/03/26 10:07:26;;;;;;;39.27;5.23;;;;;;;;;;4981329;28;20197;-70
2022/03/26 10:09:55;;;;;;;5.70;1.20;;;;;;;;;;4971206;28;20193;-69
2022/03/26 10:12:24;;;;;;;11.37;1.30;;;;;;;;;;4983711;28;20203;-70
2022/03/26 10:14:52;;;;;;;14.80;1.90;;;;;;;;;;4989514;28;20536;-69
2022/03/26 10:17:24;;;;;;;7.97;1.20;;;;;;;;;;4978191;28;20214;-70
2022/03/26 10:19:51;;;;;;;13.23;1.50;;;;;;;;;;4953312;28;20260;-69
2022/03/26 10:22:44;;;;;;;7.73;1.20;;;;;;;;;;4968956;28;20188;-70
2022/03/26 10:25:12;;;;;;;4.57;1.00;;;;;;;;;;4987469;28;20275;-70
2022/03/26 10:27:42;;;;;;;2.40;0.90;;;;;;;;;;4982975;28;20708;-69
2022/03/26 10:30:16;;;;;;;3.27;0.83;;;;;;;;;;4972660;28;20212;-70
2022/03/26 10:32:49;;;;;;;3.60;1.00;;;;;;;;;;4970490;28;20589;-70
2022/03/26 10:35:22;;;;;;;2.00;0.70;;;;;;;;;;4977078;28;20266;-70
2022/03/26 10:37:51;;;;;;;7.83;1.10;;;;;;;;;;4979801;28;20674;-69
2022/03/26 10:40:25;;;;;;;2.63;0.90;;;;;;;;;;4969793;28;20320;-70
2022/03/26 10:42:58;;;;;;;4.57;0.90;;;;;;;;;;4970469;28;20406;-70
2022/03/26 10:45:25;;;;;;;1.93;0.70;;;;;;;;;;4988527;28;20185;-71
2022/03/26 10:47:53;;;;;;;3.27;0.80;;;;;;;;;;4988012;28;20213;-70
2022/03/26 10:50:19;;;;;;;5.73;0.97;;;;;;;;;;4971722;28;20203;-70
2022/03/26 10:52:48;;;;;;;4.70;1.20;;;;;;;;;;4989090;28;20269;-70
2022/03/26 10:55:16;;;;;;;4.40;0.83;;;;;;;;;;4987826;28;20189;-70
2022/03/26 10:57:43;;;;;;;5.90;0.77;;;;;;;;;;4971552;28;20208;-70
2022/03/26 11:00:11;;;;;;;2.07;0.83;;;;;;;;;;4980544;28;20608;-70
2022/03/26 11:02:37;;;;;;;23.37;2.27;;;;;;;;;;4965622;28;20303;-70
2022/03/26 11:05:05;;;;;;;3.17;0.90;;;;;;;;;;4988814;28;20645;-69
2022/03/26 11:07:32;;;;;;;4.00;0.90;;;;;;;;;;4988663;28;20189;-70
2022/03/26 11:10:17;;;;;;;8.43;1.20;;;;;;;;;;4960938;28;20176;-69
2022/03/26 11:12:47;;;;;;;3.30;0.87;;;;;;;;;;4984732;28;20232;-69
2022/03/26 11:15:17;;;;;;;17.83;2.00;;;;;;;;;;4988936;28;20189;-71
2022/03/26 11:17:47;;;;;;;2.87;0.73;;;;;;;;;;4971403;28;20193;-71
2022/03/26 11:20:43;;;;;;;3.27;0.90;;;;;;;;;;4988352;28;20196;-71
2022/03/26 11:23:13;;;;;;;5.20;1.10;;;;;;;;;;4916396;28;20196;-71
2022/03/26 11:25:39;;;;;;;3.97;0.77;;;;;;;;;;4968918;28;20194;-71
2022/03/26 11:28:19;;;;;;;2.07;0.80;;;;;;;;;;4968991;28;20189;-71
2022/03/26 11:30:54;;;;;;;3.97;0.90;;;;;;;;;;4984161;28;20195;-72
2022/03/26 11:33:21;;;;;;;2.40;1.00;;;;;;;;;;4971380;28;20220;-71
2022/03/26 11:35:53;;;;;;;3.23;0.80;;;;;;;;;;4987832;28;20295;-71
2022/03/26 11:38:20;;;;;;;3.53;0.80;;;;;;;;;;4969877;28;20196;-71
2022/03/26 11:40:57;;;;;;;2.60;0.60;;;;;;;;;;4985703;28;20224;-71
2022/03/26 11:43:42;;;;;;;3.00;0.67;;;;;;;;;;4970999;28;20883;-71
2022/03/26 11:51:57;;;;;;;2.20;0.70;;;;;;;;;;4968258;28;20224;-70
2022/03/26 11:54:26;;;;;;;4.53;0.80;;;;;;;;;;4969919;28;20223;-70
2022/03/26 11:57:13;;;;;;;3.50;0.70;;;;;;;;;;4974509;28;20769;-69
2022/03/26 11:59:58;;;;;;;2.90;0.57;;;;;;;;;;4989468;28;20177;-70
2022/03/26 12:02:26;;;;;;;4.20;0.80;;;;;;;;;;4988554;28;20180;-68
2022/03/26 12:04:56;;;;;;;4.07;0.90;;;;;;;;;;4987329;28;20667;-64
2022/03/26 12:07:24;;;;;;;6.87;1.17;;;;;;;;;;4987450;28;20280;-64
2022/03/26 12:09:52;;;;;;;11.03;1.00;;;;;;;;;;4970662;28;20197;-64
2022/03/26 12:12:49;;;;;;;5.17;1.03;;;;;;;;;;4973311;28;20199;-65
2022/03/26 12:15:16;;;;;;;7.20;1.03;;;;;;;;;;4987482;28;20187;-64
2022/03/26 12:17:46;;;;;;;3.37;0.80;;;;;;;;;;4987660;28;20165;-65
2022/03/26 12:20:39;;;;;;;3.63;1.10;;;;;;;;;;4987997;28;20437;-64
2022/03/26 12:23:06;;;;;;;5.67;0.90;;;;;;;;;;4967502;28;20213;-66
2022/03/26 12:25:51;;;;;;;4.53;0.90;;;;;;;;;;4983649;28;20243;-66
2022/03/26 12:28:24;;;;;;;5.43;0.90;;;;;;;;;;4983211;28;20216;-65
2022/03/26 12:30:55;;;;;;;2.93;0.80;;;;;;;;;;4986915;28;20229;-65
2022/03/26 12:33:22;;;;;;;8.30;1.10;;;;;;;;;;4987769;28;20695;-66
2022/03/26 12:35:49;;;;;;;6.57;1.10;;;;;;;;;;4987434;28;20185;-67
2022/03/26 12:38:16;;;;;;;2.60;0.93;;;;;;;;;;4989259;28;20208;-65
2022/03/26 12:40:53;;;;;;;2.87;1.07;;;;;;;;;;4990635;28;20312;-60
2022/03/26 12:43:21;;;;;;;7.60;1.43;;;;;;;;;;4991126;28;20197;-65
2022/03/26 12:46:06;;;;;;;2.03;0.70;;;;;;;;;;4982934;28;20169;-64
2022/03/26 12:48:33;;;;;;;2.80;0.77;;;;;;;;;;4972444;28;21025;-64
2022/03/26 12:51:22;;;;;;;5.27;1.10;;;;;;;;;;4972527;28;20205;-71
2022/03/26 12:53:48;;;;;;;7.13;1.30;;;;;;;;;;4986081;28;20216;-69
2022/03/26 12:56:15;;;;;;;14.30;1.30;;;;;;;;;;4973676;28;20217;-65
2022/03/26 12:58:57;;;;;;;4.73;1.00;;;;;;;;;;4971784;28;20204;-72
2022/03/26 13:01:24;;;;;;;2.87;0.90;;;;;;;;;;4971861;28;20760;-69
2022/03/26 13:03:52;;;;;;;2.37;0.90;;;;;;;;;;4973878;28;20208;-62
2022/03/26 13:06:19;;;;;;;8.63;1.40;;;;;;;;;;4990771;28;20863;-62
2022/03/26 13:09:05;;;;;;;6.00;1.30;;;;;;;;;;4990259;28;20292;-75
2022/03/26 13:11:33;;;;;;;11.67;5.27;;;;;;;;;;4983588;28;20284;-76
2022/03/26 13:14:03;;;;;;;6.13;1.47;;;;;;;;;;4958672;28;20213;-64
2022/03/26 13:16:31;;;;;;;5.30;1.20;;;;;;;;;;4991568;28;20192;-66
2022/03/26 13:19:08;;;;;;;4.17;1.23;;;;;;;;;;4974751;28;20226;-67
2022/03/26 13:21:38;;;;;;;5.37;0.70;;;;;;;;;;4987727;28;20199;-64
2022/03/26 13:24:08;;;;;;;4.17;1.70;;;;;;;;;;4991527;28;20887;-66
2022/03/26 13:26:51;;;;;;;6.30;2.33;;;;;;;;;;4991866;28;20185;-67
2022/03/26 13:29:19;;;;;;;4.20;1.13;;;;;;;;;;4974232;28;20313;-68
2022/03/26 13:32:04;;;;;;;14.67;2.30;;;;;;;;;;4991179;28;20200;-70
2022/03/26 13:34:35;;;;;;;4.03;0.60;;;;;;;;;;5006342;28;20201;-69
2022/03/26 13:37:08;;;;;;;4.47;1.07;;;;;;;;;;4990127;28;20227;-68
2022/03/26 13:39:35;;;;;;;1.20;0.53;;;;;;;;;;4991952;28;20232;-68
2022/03/26 13:42:09;;;;;;;9.23;1.10;;;;;;;;;;5006365;28;20603;-71
2022/03/26 13:44:36;;;;;;;4.93;0.63;;;;;;;;;;5004266;28;20541;-69
2022/03/26 13:47:04;;;;;;;3.97;1.00;;;;;;;;;;4989165;28;20185;-68
2022/03/26 13:49:31;;;;;;;4.60;0.60;;;;;;;;;;4973674;28;20174;-71
2022/03/26 13:51:58;;;;;;;5.57;0.77;;;;;;;;;;4975276;28;20893;-69
2022/03/26 13:54:32;;;;;;;3.60;1.00;;;;;;;;;;4955100;28;20209;-70
2022/03/26 13:56:59;;;;;;;3.50;0.87;;;;;;;;;;4969160;28;20202;-71
2022/03/26 13:59:26;;;;;;;6.63;1.30;;;;;;;;;;4980042;28;20173;-71
2022/03/26 14:01:53;;;;;;;3.60;0.70;;;;;;;;;;4973043;28;20251;-69
2022/03/26 14:04:25;;;;;;;2.70;1.20;;;;;;;;;;4991202;28;20648;-71
2022/03/26 14:06:53;;;;;;;3.63;0.97;;;;;;;;;;4958060;28;20174;-69
2022/03/26 14:09:23;;;;;;;3.20;0.90;;;;;;;;;;4975956;28;20222;-71
2022/03/26 14:11:50;;;;;;;2.80;0.70;;;;;;;;;;4954848;28;20209;-71
2022/03/26 14:14:17;;;;;;;2.80;0.70;;;;;;;;;;4970438;28;20201;-65
2022/03/26 14:16:44;;;;;;;1.90;0.73;;;;;;;;;;4974763;28;20196;-64
2022/03/26 14:19:11;;;;;;;2.17;0.80;;;;;;;;;;4975116;28;20688;-68
2022/03/26 14:21:38;;;;;;;5.10;0.80;;;;;;;;;;4979528;28;20197;-72
2022/03/26 14:24:05;;;;;;;2.27;0.80;;;;;;;;;;4973010;28;20225;-69
2022/03/26 14:26:32;;;;;;;4.50;0.70;;;;;;;;;;4990976;28;20177;-69
2022/03/26 14:28:59;;;;;;;1.80;0.70;;;;;;;;;;4990762;28;20180;-67
2022/03/26 14:31:25;;;;;;;16.27;1.70;;;;;;;;;;4990659;28;20180;-71
2022/03/26 14:33:53;;;;;;;10.67;1.40;;;;;;;;;;4982599;28;20235;-74
2022/03/26 14:36:29;;;;;;;3.57;1.00;;;;;;;;;;4980305;28;20195;-72
2022/03/26 14:38:56;;;;;;;4.47;1.80;;;;;;;;;;4968429;28;20276;-71
2022/03/26 14:41:23;;;;;;;4.80;1.30;;;;;;;;;;4996959;28;20644;-78
2022/03/26 14:43:50;;;;;;;16.20;1.80;;;;;;;;;;4988837;28;20235;-69
2022/03/26 14:46:17;;;;;;;5.93;1.00;;;;;;;;;;4974130;28;20708;-69
2022/03/26 14:49:01;;;;;;;1.90;0.80;;;;;;;;;;4970938;28;20229;-68
2022/03/26 14:51:28;;;;;;;3.53;1.13;;;;;;;;;;4979883;28;20192;-72
2022/03/26 14:53:55;;;;;;;2.87;0.73;;;;;;;;;;4973130;28;20287;-69
2022/03/26 14:56:21;;;;;;;3.73;0.70;;;;;;;;;;4990026;28;20267;-70
2022/03/26 14:58:48;;;;;;;4.23;0.87;;;;;;;;;;4988742;28;20208;-66
2022/03/26 15:01:15;;;;;;;4.60;0.70;;;;;;;;;;4988476;28;20933;-70
2022/03/26 15:03:42;;;;;;;8.40;1.50;;;;;;;;;;4973126;28;20276;-67
2022/03/26 15:06:11;;;;;;;3.00;0.60;;;;;;;;;;4986160;28;20232;-74
2022/03/26 15:08:56;;;;;;;2.80;0.80;;;;;;;;;;4957625;28;20178;-68
2022/03/26 15:11:23;;;;;;;2.93;0.70;;;;;;;;;;4970876;28;20182;-73
2022/03/26 15:13:50;;;;;;;1.20;0.67;;;;;;;;;;4987706;28;20819;-68
2022/03/26 15:16:17;;;;;;;4.33;0.93;;;;;;;;;;4982942;28;20187;-68
2022/03/26 15:18:45;;;;;;;2.00;0.80;;;;;;;;;;4984271;28;20186;-69
2022/03/26 15:21:12;;;;;;;3.27;0.60;;;;;;;;;;4970455;28;20240;-69
2022/03/26 15:23:46;;;;;;;2.90;1.10;;;;;;;;;;4980023;28;20989;-74
2022/03/26 15:26:13;;;;;;;5.13;0.80;;;;;;;;;;4972780;28;20280;-73